sensor_id;sensor_type;location;lat;lon;timestamp;temperature;humidity
26049;DHT22;13822;51.568;5.086;2024-03-23T03:00:33;10.80;99.90
26049;DHT22;13822;51.568;5.086;2024-03-23T03:47:11;5.80;99.90
26049;DHT22;13822;51.568;5.086;2024-03-23T03:52:13;5.70;99.90
26049;DHT22;13822;51.568;5.086;2024-03-23T05:18:11;5.20;99.90
26049;DHT22;13822;51.568;5.086;2024-03-23T05:23:18;5.20;99.90
26049;DHT22;13822;51.568;5.086;2024-03-23T05:28:22;5.10;99.90
26049;DHT22;13822;51.568;5.086;2024-03-23T05:33:32;5.10;99.90
26049;DHT22;13822;51.568;5.086;2024-03-23T05:38:53;5.10;99.90
26049;DHT22;13822;51.568;5.086;2024-03-23T05:43:55;5.10;99.90
26049;DHT22;13822;51.568;5.086;2024-03-23T05:49:08;5.00;99.90
26049;DHT22;13822;51.568;5.086;2024-03-23T05:55:17;5.00;99.90
26049;DHT22;13822;51.568;5.086;2024-03-23T06:00:21;5.10;99.90
26049;DHT22;13822;51.568;5.086;2024-03-23T06:05:37;5.10;99.90
26049;DHT22;13822;51.568;5.086;2024-03-23T06:10:47;5.20;99.90
26049;DHT22;13822;51.568;5.086;2024-03-23T06:29:14;5.30;99.90
26049;DHT22;13822;51.568;5.086;2024-03-23T06:34:15;5.40;99.90
26049;DHT22;13822;51.568;5.086;2024-03-23T06:39:16;5.50;99.90
26049;DHT22;13822;51.568;5.086;2024-03-23T06:44:17;5.50;99.90
26049;DHT22;13822;51.568;5.086;2024-03-23T06:49:18;5.50;99.90
26049;DHT22;13822;51.568;5.086;2024-03-23T06:54:19;5.60;99.90
26049;DHT22;13822;51.568;5.086;2024-03-23T06:59:20;5.60;99.90
26049;DHT22;13822;51.568;5.086;2024-03-23T07:04:21;5.70;99.90
26049;DHT22;13822;51.568;5.086;2024-03-23T07:09:22;5.70;99.90
26049;DHT22;13822;51.568;5.086;2024-03-23T07:14:26;5.70;99.90
26049;DHT22;13822;51.568;5.086;2024-03-23T07:19:27;5.80;99.90
26049;DHT22;13822;51.568;5.086;2024-03-23T07:24:29;5.90;99.90
26049;DHT22;13822;51.568;5.086;2024-03-23T07:29:31;5.90;99.90
26049;DHT22;13822;51.568;5.086;2024-03-23T07:34:32;5.90;99.90
26049;DHT22;13822;51.568;5.086;2024-03-23T07:39:33;6.00;99.90
26049;DHT22;13822;51.568;5.086;2024-03-23T07:44:34;6.10;99.90
26049;DHT22;13822;51.568;5.086;2024-03-23T07:49:35;6.20;99.90
26049;DHT22;13822;51.568;5.086;2024-03-23T07:54:36;6.30;99.90
26049;DHT22;13822;51.568;5.086;2024-03-23T07:59:37;6.30;99.90
26049;DHT22;13822;51.568;5.086;2024-03-23T08:04:38;6.50;99.90
26049;DHT22;13822;51.568;5.086;2024-03-23T08:09:39;6.50;99.90
26049;DHT22;13822;51.568;5.086;2024-03-23T08:14:40;6.60;99.90
26049;DHT22;13822;51.568;5.086;2024-03-23T08:19:40;6.80;99.90
26049;DHT22;13822;51.568;5.086;2024-03-23T08:24:41;6.90;99.90
26049;DHT22;13822;51.568;5.086;2024-03-23T08:29:45;7.10;99.90
26049;DHT22;13822;51.568;5.086;2024-03-23T08:34:46;7.20;99.90
26049;DHT22;13822;51.568;5.086;2024-03-23T08:39:47;7.30;99.90
26049;DHT22;13822;51.568;5.086;2024-03-23T08:44:48;7.30;99.90
26049;DHT22;13822;51.568;5.086;2024-03-23T08:49:51;7.10;99.90
26049;DHT22;13822;51.568;5.086;2024-03-23T08:54:52;7.00;99.90
26049;DHT22;13822;51.568;5.086;2024-03-23T08:59:53;6.90;99.90
26049;DHT22;13822;51.568;5.086;2024-03-23T09:04:54;6.80;99.90
26049;DHT22;13822;51.568;5.086;2024-03-23T09:09:55;6.70;99.90
26049;DHT22;13822;51.568;5.086;2024-03-23T09:14:56;6.80;99.90
26049;DHT22;13822;51.568;5.086;2024-03-23T09:19:57;6.90;99.90
26049;DHT22;13822;51.568;5.086;2024-03-23T09:24:58;7.10;99.90
26049;DHT22;13822;51.568;5.086;2024-03-23T09:29:59;7.30;99.90
26049;DHT22;13822;51.568;5.086;2024-03-23T09:35:00;7.60;99.90
26049;DHT22;13822;51.568;5.086;2024-03-23T09:40:00;7.90;99.90
26049;DHT22;13822;51.568;5.086;2024-03-23T09:45:01;8.00;99.90
26049;DHT22;13822;51.568;5.086;2024-03-23T09:50:03;8.10;99.90
26049;DHT22;13822;51.568;5.086;2024-03-23T09:55:05;8.30;99.90
26049;DHT22;13822;51.568;5.086;2024-03-23T10:00:06;8.40;99.90
26049;DHT22;13822;51.568;5.086;2024-03-23T10:05:21;8.40;99.90
26049;DHT22;13822;51.568;5.086;2024-03-23T10:10:24;8.60;99.90
26049;DHT22;13822;51.568;5.086;2024-03-23T10:15:25;8.70;99.90
26049;DHT22;13822;51.568;5.086;2024-03-23T10:20:26;8.50;99.90
26049;DHT22;13822;51.568;5.086;2024-03-23T10:25:27;7.90;99.90
26049;DHT22;13822;51.568;5.086;2024-03-23T10:30:28;7.60;99.90
26049;DHT22;13822;51.568;5.086;2024-03-23T10:35:29;7.40;99.90
26049;DHT22;13822;51.568;5.086;2024-03-23T10:40:30;7.50;99.90
26049;DHT22;13822;51.568;5.086;2024-03-23T10:45:31;7.80;99.90
26049;DHT22;13822;51.568;5.086;2024-03-23T10:50:32;8.30;99.90
26049;DHT22;13822;51.568;5.086;2024-03-23T10:55:33;8.90;99.90
26049;DHT22;13822;51.568;5.086;2024-03-23T11:00:34;9.40;99.90
26049;DHT22;13822;51.568;5.086;2024-03-23T11:05:37;10.00;99.90
26049;DHT22;13822;51.568;5.086;2024-03-23T11:10:37;9.70;99.90
26049;DHT22;13822;51.568;5.086;2024-03-23T11:15:38;9.30;99.90
26049;DHT22;13822;51.568;5.086;2024-03-23T11:20:39;9.50;99.90
26049;DHT22;13822;51.568;5.086;2024-03-23T11:25:40;9.50;99.90
26049;DHT22;13822;51.568;5.086;2024-03-23T11:30:41;9.30;99.90
26049;DHT22;13822;51.568;5.086;2024-03-23T11:35:43;9.20;99.90
26049;DHT22;13822;51.568;5.086;2024-03-23T11:40:44;9.40;99.90
26049;DHT22;13822;51.568;5.086;2024-03-23T11:45:47;9.40;99.90
26049;DHT22;13822;51.568;5.086;2024-03-23T11:50:49;9.30;99.90
26049;DHT22;13822;51.568;5.086;2024-03-23T11:55:52;9.40;99.90
26049;DHT22;13822;51.568;5.086;2024-03-23T12:00:58;9.50;99.90
26049;DHT22;13822;51.568;5.086;2024-03-23T12:06:00;10.00;99.90
26049;DHT22;13822;51.568;5.086;2024-03-23T12:11:12;10.50;99.90
26049;DHT22;13822;51.568;5.086;2024-03-23T12:16:19;10.20;99.90
26049;DHT22;13822;51.568;5.086;2024-03-23T12:21:21;9.50;99.90
26049;DHT22;13822;51.568;5.086;2024-03-23T12:26:23;8.50;99.90
26049;DHT22;13822;51.568;5.086;2024-03-23T12:31:24;8.10;99.90
26049;DHT22;13822;51.568;5.086;2024-03-23T12:36:25;7.90;99.90
26049;DHT22;13822;51.568;5.086;2024-03-23T12:41:26;7.80;99.90
26049;DHT22;13822;51.568;5.086;2024-03-23T12:46:27;7.80;99.90
26049;DHT22;13822;51.568;5.086;2024-03-23T12:51:28;7.90;99.90
26049;DHT22;13822;51.568;5.086;2024-03-23T12:56:29;8.30;99.90
26049;DHT22;13822;51.568;5.086;2024-03-23T13:01:31;8.50;99.90
26049;DHT22;13822;51.568;5.086;2024-03-23T13:06:32;8.40;99.90
26049;DHT22;13822;51.568;5.086;2024-03-23T13:11:34;8.20;99.90
26049;DHT22;13822;51.568;5.086;2024-03-23T13:16:35;8.00;99.90
26049;DHT22;13822;51.568;5.086;2024-03-23T13:21:36;7.90;99.90
26049;DHT22;13822;51.568;5.086;2024-03-23T13:26:38;7.70;99.90
26049;DHT22;13822;51.568;5.086;2024-03-23T13:31:38;7.70;99.90
26049;DHT22;13822;51.568;5.086;2024-03-23T13:36:39;7.70;99.90
26049;DHT22;13822;51.568;5.086;2024-03-23T13:41:42;7.90;99.90
26049;DHT22;13822;51.568;5.086;2024-03-23T13:46:43;7.90;99.90
26049;DHT22;13822;51.568;5.086;2024-03-23T13:51:46;7.90;99.90
26049;DHT22;13822;51.568;5.086;2024-03-23T13:56:50;8.40;99.90
26049;DHT22;13822;51.568;5.086;2024-03-23T14:01:52;8.60;99.90
26049;DHT22;13822;51.568;5.086;2024-03-23T14:06:53;8.50;99.90
26049;DHT22;13822;51.568;5.086;2024-03-23T14:11:54;8.40;99.90
26049;DHT22;13822;51.568;5.086;2024-03-23T14:16:56;8.20;99.90
26049;DHT22;13822;51.568;5.086;2024-03-23T14:21:57;8.20;99.90
26049;DHT22;13822;51.568;5.086;2024-03-23T14:26:58;8.20;99.90
26049;DHT22;13822;51.568;5.086;2024-03-23T14:31:58;8.20;99.90
26049;DHT22;13822;51.568;5.086;2024-03-23T14:37:00;8.20;99.90
26049;DHT22;13822;51.568;5.086;2024-03-23T14:42:01;7.80;99.90
26049;DHT22;13822;51.568;5.086;2024-03-23T14:47:02;7.40;99.90
26049;DHT22;13822;51.568;5.086;2024-03-23T14:52:03;7.20;99.90
26049;DHT22;13822;51.568;5.086;2024-03-23T14:57:04;7.00;99.90
26049;DHT22;13822;51.568;5.086;2024-03-23T15:02:05;6.70;99.90
26049;DHT22;13822;51.568;5.086;2024-03-23T15:07:07;6.20;99.90
26049;DHT22;13822;51.568;5.086;2024-03-23T15:12:08;5.70;99.90
26049;DHT22;13822;51.568;5.086;2024-03-23T15:17:09;5.50;99.90
26049;DHT22;13822;51.568;5.086;2024-03-23T15:22:10;5.30;99.90
26049;DHT22;13822;51.568;5.086;2024-03-23T15:27:11;5.20;99.90
26049;DHT22;13822;51.568;5.086;2024-03-23T15:32:12;5.00;99.90
26049;DHT22;13822;51.568;5.086;2024-03-23T15:37:14;4.90;99.90
26049;DHT22;13822;51.568;5.086;2024-03-23T15:42:15;4.80;99.90
26049;DHT22;13822;51.568;5.086;2024-03-23T15:47:16;4.80;99.90
26049;DHT22;13822;51.568;5.086;2024-03-23T15:52:17;4.80;99.90
26049;DHT22;13822;51.568;5.086;2024-03-23T15:57:18;4.90;99.90
26049;DHT22;13822;51.568;5.086;2024-03-23T16:02:19;4.90;99.90
26049;DHT22;13822;51.568;5.086;2024-03-23T16:07:20;5.00;99.90
26049;DHT22;13822;51.568;5.086;2024-03-23T16:12:21;5.00;99.90
26049;DHT22;13822;51.568;5.086;2024-03-23T16:17:22;5.10;99.90
26049;DHT22;13822;51.568;5.086;2024-03-23T16:22:23;5.10;99.90
26049;DHT22;13822;51.568;5.086;2024-03-23T16:27:24;5.20;99.90
26049;DHT22;13822;51.568;5.086;2024-03-23T16:32:25;5.50;99.90
26049;DHT22;13822;51.568;5.086;2024-03-23T16:37:28;5.70;99.90
26049;DHT22;13822;51.568;5.086;2024-03-23T16:42:29;5.70;99.90
26049;DHT22;13822;51.568;5.086;2024-03-23T16:47:30;5.70;99.90
26049;DHT22;13822;51.568;5.086;2024-03-23T16:52:34;5.60;99.90
26049;DHT22;13822;51.568;5.086;2024-03-23T16:57:38;5.60;99.90
26049;DHT22;13822;51.568;5.086;2024-03-23T17:02:39;5.50;99.90
26049;DHT22;13822;51.568;5.086;2024-03-23T17:07:39;5.50;99.90
26049;DHT22;13822;51.568;5.086;2024-03-23T17:12:40;5.30;99.90
26049;DHT22;13822;51.568;5.086;2024-03-23T17:17:41;5.30;99.90
26049;DHT22;13822;51.568;5.086;2024-03-23T17:22:42;5.30;99.90
26049;DHT22;13822;51.568;5.086;2024-03-23T17:27:43;5.30;99.90
26049;DHT22;13822;51.568;5.086;2024-03-23T17:32:44;5.30;99.90
26049;DHT22;13822;51.568;5.086;2024-03-23T17:37:45;5.30;99.90
26049;DHT22;13822;51.568;5.086;2024-03-23T17:42:46;5.30;99.90
26049;DHT22;13822;51.568;5.086;2024-03-23T17:47:50;5.20;99.90
26049;DHT22;13822;51.568;5.086;2024-03-23T17:53:01;5.20;99.90
26049;DHT22;13822;51.568;5.086;2024-03-23T17:58:05;5.20;99.90
26049;DHT22;13822;51.568;5.086;2024-03-23T18:03:09;5.20;99.90
26049;DHT22;13822;51.568;5.086;2024-03-23T18:08:12;5.30;99.90
26049;DHT22;13822;51.568;5.086;2024-03-23T18:13:17;5.30;99.90
26049;DHT22;13822;51.568;5.086;2024-03-23T18:18:31;5.30;99.90
26049;DHT22;13822;51.568;5.086;2024-03-23T18:23:33;5.30;99.90
26049;DHT22;13822;51.568;5.086;2024-03-23T18:28:39;5.30;99.90
26049;DHT22;13822;51.568;5.086;2024-03-23T18:33:45;5.30;99.90
26049;DHT22;13822;51.568;5.086;2024-03-23T18:38:50;5.30;99.90
26049;DHT22;13822;51.568;5.086;2024-03-23T18:44:12;5.30;99.90
26049;DHT22;13822;51.568;5.086;2024-03-23T18:49:22;5.30;99.90
26049;DHT22;13822;51.568;5.086;2024-03-23T18:54:44;5.30;99.90
26049;DHT22;13822;51.568;5.086;2024-03-23T18:59:56;5.30;99.90
26049;DHT22;13822;51.568;5.086;2024-03-23T19:05:08;5.30;99.90
26049;DHT22;13822;51.568;5.086;2024-03-23T19:10:20;5.20;99.90
26049;DHT22;13822;51.568;5.086;2024-03-23T19:15:23;5.20;99.90
26049;DHT22;13822;51.568;5.086;2024-03-23T19:20:38;5.20;99.90
26049;DHT22;13822;51.568;5.086;2024-03-23T19:25:42;5.20;99.90
26049;DHT22;13822;51.568;5.086;2024-03-23T19:31:04;5.10;99.90
26049;DHT22;13822;51.568;5.086;2024-03-23T19:36:08;5.10;99.90
26049;DHT22;13822;51.568;5.086;2024-03-23T19:41:09;5.10;99.90
26049;DHT22;13822;51.568;5.086;2024-03-23T19:46:20;5.10;99.90
26049;DHT22;13822;51.568;5.086;2024-03-23T19:51:44;5.00;99.90
26049;DHT22;13822;51.568;5.086;2024-03-23T19:56:50;5.00;99.90
26049;DHT22;13822;51.568;5.086;2024-03-23T20:01:51;5.00;99.90
26049;DHT22;13822;51.568;5.086;2024-03-23T20:07:05;4.90;99.90
26049;DHT22;13822;51.568;5.086;2024-03-23T20:12:07;4.90;99.90
26049;DHT22;13822;51.568;5.086;2024-03-23T20:17:12;4.90;99.90
26049;DHT22;13822;51.568;5.086;2024-03-23T20:22:16;4.80;99.90
26049;DHT22;13822;51.568;5.086;2024-03-23T20:27:27;4.80;99.90
26049;DHT22;13822;51.568;5.086;2024-03-23T20:32:34;4.80;99.90
26049;DHT22;13822;51.568;5.086;2024-03-23T20:37:37;4.80;99.90
26049;DHT22;13822;51.568;5.086;2024-03-23T20:42:40;4.70;99.90
26049;DHT22;13822;51.568;5.086;2024-03-23T20:47:45;4.70;99.90
26049;DHT22;13822;51.568;5.086;2024-03-23T20:52:50;4.70;99.90
26049;DHT22;13822;51.568;5.086;2024-03-23T20:57:56;4.70;99.90
26049;DHT22;13822;51.568;5.086;2024-03-23T21:02:59;4.70;99.90
26049;DHT22;13822;51.568;5.086;2024-03-23T21:08:04;4.70;99.90
26049;DHT22;13822;51.568;5.086;2024-03-23T21:13:08;4.60;99.90
26049;DHT22;13822;51.568;5.086;2024-03-23T21:18:09;4.60;99.90
26049;DHT22;13822;51.568;5.086;2024-03-23T21:23:15;4.60;99.90
26049;DHT22;13822;51.568;5.086;2024-03-23T21:28:22;4.50;99.90
26049;DHT22;13822;51.568;5.086;2024-03-23T21:33:26;4.60;99.90
26049;DHT22;13822;51.568;5.086;2024-03-23T21:38:41;4.50;99.90
26049;DHT22;13822;51.568;5.086;2024-03-23T21:43:50;4.60;99.90
26049;DHT22;13822;51.568;5.086;2024-03-23T21:49:02;4.60;99.90
26049;DHT22;13822;51.568;5.086;2024-03-23T21:54:06;4.60;99.90
26049;DHT22;13822;51.568;5.086;2024-03-23T21:59:07;4.60;99.90
26049;DHT22;13822;51.568;5.086;2024-03-23T22:04:10;4.50;99.90
26049;DHT22;13822;51.568;5.086;2024-03-23T22:09:15;4.50;99.90
26049;DHT22;13822;51.568;5.086;2024-03-23T22:14:22;4.50;99.90
26049;DHT22;13822;51.568;5.086;2024-03-23T22:19:24;4.50;99.90
26049;DHT22;13822;51.568;5.086;2024-03-23T22:24:34;4.50;99.90
26049;DHT22;13822;51.568;5.086;2024-03-23T22:29:35;4.50;99.90
26049;DHT22;13822;51.568;5.086;2024-03-23T22:34:39;4.50;99.90
26049;DHT22;13822;51.568;5.086;2024-03-23T22:39:45;4.40;99.90
26049;DHT22;13822;51.568;5.086;2024-03-23T22:45:34;4.40;99.90
26049;DHT22;13822;51.568;5.086;2024-03-23T22:50:42;4.50;99.90
26049;DHT22;13822;51.568;5.086;2024-03-23T22:55:46;4.50;99.90
26049;DHT22;13822;51.568;5.086;2024-03-23T23:01:36;4.50;99.90
26049;DHT22;13822;51.568;5.086;2024-03-23T23:07:03;4.50;99.90
26049;DHT22;13822;51.568;5.086;2024-03-23T23:12:26;4.50;99.90
26049;DHT22;13822;51.568;5.086;2024-03-23T23:18:04;4.50;99.90
26049;DHT22;13822;51.568;5.086;2024-03-23T23:24:21;4.50;99.90
26049;DHT22;13822;51.568;5.086;2024-03-23T23:30:23;4.60;99.90
26049;DHT22;13822;51.568;5.086;2024-03-23T23:41:57;4.70;99.90
26049;DHT22;13822;51.568;5.086;2024-03-23T23:47:49;4.70;99.90
26049;DHT22;13822;51.568;5.086;2024-03-23T23:58:49;4.80;99.90
